sensor_id;sensor_type;location;lat;lon;timestamp;P1;durP1;ratioP1;P2;durP2;ratioP2
42194;SDS011;27863;49.440;11.102;2023-05-10T00:01:07;3.78;;;3.30;;
42194;SDS011;27863;49.440;11.102;2023-05-10T00:04:08;3.78;;;3.47;;
42194;SDS011;27863;49.440;11.102;2023-05-10T00:07:09;4.60;;;4.20;;
42194;SDS011;27863;49.440;11.102;2023-05-10T00:10:12;4.40;;;4.10;;
42194;SDS011;27863;49.440;11.102;2023-05-10T00:13:16;4.18;;;3.78;;
42194;SDS011;27863;49.440;11.102;2023-05-10T00:16:16;4.47;;;4.18;;
42194;SDS011;27863;49.440;11.102;2023-05-10T00:19:18;5.13;;;4.47;;
42194;SDS011;27863;49.440;11.102;2023-05-10T00:22:19;5.35;;;4.95;;
42194;SDS011;27863;49.440;11.102;2023-05-10T00:25:20;5.32;;;4.93;;
42194;SDS011;27863;49.440;11.102;2023-05-10T00:28:21;5.50;;;5.00;;
42194;SDS011;27863;49.440;11.102;2023-05-10T00:31:22;5.43;;;4.93;;
42194;SDS011;27863;49.440;11.102;2023-05-10T00:34:31;5.60;;;5.10;;
42194;SDS011;27863;49.440;11.102;2023-05-10T00:37:34;6.28;;;5.70;;
42194;SDS011;27863;49.440;11.102;2023-05-10T00:40:39;5.35;;;4.95;;
42194;SDS011;27863;49.440;11.102;2023-05-10T00:43:49;5.55;;;5.10;;
42194;SDS011;27863;49.440;11.102;2023-05-10T00:46:50;7.43;;;6.10;;
42194;SDS011;27863;49.440;11.102;2023-05-10T00:49:54;8.27;;;6.85;;
42194;SDS011;27863;49.440;11.102;2023-05-10T00:52:56;9.63;;;6.30;;
42194;SDS011;27863;49.440;11.102;2023-05-10T00:55:56;7.05;;;6.45;;
42194;SDS011;27863;49.440;11.102;2023-05-10T00:58:57;6.65;;;5.72;;
42194;SDS011;27863;49.440;11.102;2023-05-10T01:02:01;6.90;;;6.40;;
42194;SDS011;27863;49.440;11.102;2023-05-10T01:05:03;7.15;;;6.07;;
42194;SDS011;27863;49.440;11.102;2023-05-10T01:08:08;7.05;;;6.28;;
42194;SDS011;27863;49.440;11.102;2023-05-10T01:11:10;6.72;;;6.22;;
42194;SDS011;27863;49.440;11.102;2023-05-10T01:14:10;6.63;;;6.13;;
42194;SDS011;27863;49.440;11.102;2023-05-10T01:17:11;6.55;;;6.05;;
42194;SDS011;27863;49.440;11.102;2023-05-10T01:20:12;7.00;;;6.40;;
42194;SDS011;27863;49.440;11.102;2023-05-10T01:33:47;7.07;;;6.57;;
42194;SDS011;27863;49.440;11.102;2023-05-10T01:36:43;7.77;;;7.17;;
42194;SDS011;27863;49.440;11.102;2023-05-10T01:39:54;7.43;;;6.73;;
42194;SDS011;27863;49.440;11.102;2023-05-10T01:43:05;11.32;;;7.20;;
42194;SDS011;27863;49.440;11.102;2023-05-10T01:46:14;8.45;;;7.78;;
42194;SDS011;27863;49.440;11.102;2023-05-10T01:49:20;7.30;;;6.73;;
42194;SDS011;27863;49.440;11.102;2023-05-10T01:52:26;8.87;;;8.10;;
42194;SDS011;27863;49.440;11.102;2023-05-10T01:55:33;7.47;;;6.82;;
42194;SDS011;27863;49.440;11.102;2023-05-10T01:58:36;7.18;;;6.55;;
42194;SDS011;27863;49.440;11.102;2023-05-10T02:01:38;8.30;;;7.50;;
42194;SDS011;27863;49.440;11.102;2023-05-10T02:04:39;7.37;;;6.77;;
42194;SDS011;27863;49.440;11.102;2023-05-10T02:07:41;7.75;;;7.15;;
42194;SDS011;27863;49.440;11.102;2023-05-10T02:10:42;8.05;;;7.45;;
42194;SDS011;27863;49.440;11.102;2023-05-10T02:13:45;8.10;;;7.43;;
42194;SDS011;27863;49.440;11.102;2023-05-10T02:16:48;7.88;;;6.97;;
42194;SDS011;27863;49.440;11.102;2023-05-10T02:19:49;7.32;;;6.72;;
42194;SDS011;27863;49.440;11.102;2023-05-10T02:22:53;7.15;;;6.55;;
42194;SDS011;27863;49.440;11.102;2023-05-10T02:25:56;7.43;;;6.80;;
42194;SDS011;27863;49.440;11.102;2023-05-10T02:28:57;6.53;;;5.93;;
42194;SDS011;27863;49.440;11.102;2023-05-10T02:31:59;7.35;;;6.65;;
42194;SDS011;27863;49.440;11.102;2023-05-10T02:35:01;6.23;;;5.73;;
42194;SDS011;27863;49.440;11.102;2023-05-10T02:38:03;5.25;;;4.85;;
42194;SDS011;27863;49.440;11.102;2023-05-10T02:41:04;5.90;;;5.40;;
42194;SDS011;27863;49.440;11.102;2023-05-10T02:44:06;5.28;;;4.88;;
42194;SDS011;27863;49.440;11.102;2023-05-10T02:47:07;4.72;;;4.43;;
42194;SDS011;27863;49.440;11.102;2023-05-10T02:50:09;4.57;;;4.17;;
42194;SDS011;27863;49.440;11.102;2023-05-10T02:53:10;3.70;;;3.40;;
42194;SDS011;27863;49.440;11.102;2023-05-10T02:56:15;5.63;;;4.38;;
42194;SDS011;27863;49.440;11.102;2023-05-10T02:59:21;3.97;;;3.67;;
42194;SDS011;27863;49.440;11.102;2023-05-10T03:02:22;3.87;;;3.57;;
42194;SDS011;27863;49.440;11.102;2023-05-10T03:05:23;3.92;;;3.03;;
42194;SDS011;27863;49.440;11.102;2023-05-10T03:08:23;2.03;;;1.92;;
42194;SDS011;27863;49.440;11.102;2023-05-10T03:11:43;2.35;;;1.80;;
42194;SDS011;27863;49.440;11.102;2023-05-10T03:14:57;2.42;;;2.22;;
42194;SDS011;27863;49.440;11.102;2023-05-10T03:18:18;2.45;;;1.65;;
42194;SDS011;27863;49.440;11.102;2023-05-10T03:21:22;1.52;;;1.42;;
42194;SDS011;27863;49.440;11.102;2023-05-10T03:24:29;1.70;;;1.60;;
42194;SDS011;27863;49.440;11.102;2023-05-10T03:27:33;1.83;;;1.60;;
42194;SDS011;27863;49.440;11.102;2023-05-10T03:30:34;2.05;;;1.50;;
42194;SDS011;27863;49.440;11.102;2023-05-10T03:33:35;1.70;;;1.60;;
42194;SDS011;27863;49.440;11.102;2023-05-10T03:36:36;1.30;;;1.20;;
42194;SDS011;27863;49.440;11.102;2023-05-10T03:39:37;1.20;;;1.10;;
42194;SDS011;27863;49.440;11.102;2023-05-10T03:42:40;0.97;;;0.97;;
42194;SDS011;27863;49.440;11.102;2023-05-10T03:45:40;1.10;;;1.00;;
42194;SDS011;27863;49.440;11.102;2023-05-10T03:48:41;0.63;;;0.63;;
42194;SDS011;27863;49.440;11.102;2023-05-10T03:51:41;0.90;;;0.90;;
42194;SDS011;27863;49.440;11.102;2023-05-10T03:54:42;1.00;;;0.80;;
42194;SDS011;27863;49.440;11.102;2023-05-10T03:57:42;1.30;;;0.50;;
42194;SDS011;27863;49.440;11.102;2023-05-10T04:00:43;1.20;;;0.50;;
42194;SDS011;27863;49.440;11.102;2023-05-10T04:03:47;1.43;;;0.73;;
42194;SDS011;27863;49.440;11.102;2023-05-10T04:06:48;0.73;;;0.63;;
42194;SDS011;27863;49.440;11.102;2023-05-10T04:09:49;0.50;;;0.50;;
42194;SDS011;27863;49.440;11.102;2023-05-10T04:12:49;0.70;;;0.60;;
42194;SDS011;27863;49.440;11.102;2023-05-10T04:15:50;0.50;;;0.50;;
42194;SDS011;27863;49.440;11.102;2023-05-10T04:18:50;0.40;;;0.40;;
42194;SDS011;27863;49.440;11.102;2023-05-10T04:21:51;1.13;;;0.60;;
42194;SDS011;27863;49.440;11.102;2023-05-10T04:24:51;0.60;;;0.60;;
42194;SDS011;27863;49.440;11.102;2023-05-10T04:27:51;0.60;;;0.60;;
42194;SDS011;27863;49.440;11.102;2023-05-10T04:30:52;0.50;;;0.50;;
42194;SDS011;27863;49.440;11.102;2023-05-10T04:33:53;1.60;;;0.80;;
42194;SDS011;27863;49.440;11.102;2023-05-10T04:36:53;0.93;;;0.70;;
42194;SDS011;27863;49.440;11.102;2023-05-10T04:39:55;0.50;;;0.50;;
42194;SDS011;27863;49.440;11.102;2023-05-10T04:42:55;1.40;;;0.50;;
42194;SDS011;27863;49.440;11.102;2023-05-10T04:45:56;0.50;;;0.50;;
42194;SDS011;27863;49.440;11.102;2023-05-10T04:48:57;0.50;;;0.40;;
42194;SDS011;27863;49.440;11.102;2023-05-10T04:51:57;0.30;;;0.30;;
42194;SDS011;27863;49.440;11.102;2023-05-10T04:54:58;0.40;;;0.40;;
42194;SDS011;27863;49.440;11.102;2023-05-10T04:57:58;0.40;;;0.40;;
42194;SDS011;27863;49.440;11.102;2023-05-10T05:01:04;1.17;;;0.55;;
42194;SDS011;27863;49.440;11.102;2023-05-10T05:04:09;0.35;;;0.35;;
42194;SDS011;27863;49.440;11.102;2023-05-10T05:07:09;1.55;;;0.50;;
42194;SDS011;27863;49.440;11.102;2023-05-10T05:10:12;0.40;;;0.40;;
42194;SDS011;27863;49.440;11.102;2023-05-10T05:13:13;0.38;;;0.30;;
42194;SDS011;27863;49.440;11.102;2023-05-10T05:16:13;0.30;;;0.30;;
42194;SDS011;27863;49.440;11.102;2023-05-10T05:19:14;0.40;;;0.40;;
42194;SDS011;27863;49.440;11.102;2023-05-10T05:22:18;0.38;;;0.35;;
42194;SDS011;27863;49.440;11.102;2023-05-10T05:25:27;0.40;;;0.40;;
42194;SDS011;27863;49.440;11.102;2023-05-10T05:28:28;1.25;;;0.40;;
42194;SDS011;27863;49.440;11.102;2023-05-10T05:31:32;1.15;;;0.50;;
42194;SDS011;27863;49.440;11.102;2023-05-10T05:34:33;0.93;;;0.60;;
42194;SDS011;27863;49.440;11.102;2023-05-10T05:37:33;1.10;;;0.50;;
42194;SDS011;27863;49.440;11.102;2023-05-10T05:40:34;1.10;;;0.52;;
42194;SDS011;27863;49.440;11.102;2023-05-10T05:43:35;0.82;;;0.60;;
42194;SDS011;27863;49.440;11.102;2023-05-10T05:46:35;0.80;;;0.70;;
42194;SDS011;27863;49.440;11.102;2023-05-10T05:49:36;0.60;;;0.52;;
42194;SDS011;27863;49.440;11.102;2023-05-10T05:52:36;0.93;;;0.60;;
42194;SDS011;27863;49.440;11.102;2023-05-10T05:55:37;1.88;;;0.75;;
42194;SDS011;27863;49.440;11.102;2023-05-10T05:58:39;0.50;;;0.50;;
42194;SDS011;27863;49.440;11.102;2023-05-10T06:01:39;0.52;;;0.52;;
42194;SDS011;27863;49.440;11.102;2023-05-10T06:04:40;0.80;;;0.65;;
42194;SDS011;27863;49.440;11.102;2023-05-10T06:07:40;0.82;;;0.50;;
42194;SDS011;27863;49.440;11.102;2023-05-10T06:10:43;0.98;;;0.90;;
42194;SDS011;27863;49.440;11.102;2023-05-10T06:13:44;0.95;;;0.55;;
42194;SDS011;27863;49.440;11.102;2023-05-10T06:16:45;0.98;;;0.88;;
42194;SDS011;27863;49.440;11.102;2023-05-10T06:19:46;1.15;;;1.05;;
42194;SDS011;27863;49.440;11.102;2023-05-10T06:22:46;3.15;;;0.88;;
42194;SDS011;27863;49.440;11.102;2023-05-10T06:25:48;2.03;;;1.15;;
42194;SDS011;27863;49.440;11.102;2023-05-10T06:28:49;2.20;;;0.85;;
42194;SDS011;27863;49.440;11.102;2023-05-10T06:31:50;2.22;;;1.27;;
42194;SDS011;27863;49.440;11.102;2023-05-10T06:34:50;1.20;;;1.10;;
42194;SDS011;27863;49.440;11.102;2023-05-10T06:37:51;1.05;;;0.80;;
42194;SDS011;27863;49.440;11.102;2023-05-10T06:40:51;0.90;;;0.68;;
42194;SDS011;27863;49.440;11.102;2023-05-10T06:43:52;0.93;;;0.90;;
42194;SDS011;27863;49.440;11.102;2023-05-10T06:46:52;2.30;;;0.93;;
42194;SDS011;27863;49.440;11.102;2023-05-10T06:49:55;2.67;;;0.77;;
42194;SDS011;27863;49.440;11.102;2023-05-10T06:52:55;0.50;;;0.50;;
42194;SDS011;27863;49.440;11.102;2023-05-10T06:55:56;1.25;;;1.15;;
42194;SDS011;27863;49.440;11.102;2023-05-10T06:58:57;1.00;;;0.60;;
42194;SDS011;27863;49.440;11.102;2023-05-10T07:01:58;0.90;;;0.50;;
42194;SDS011;27863;49.440;11.102;2023-05-10T07:04:58;0.80;;;0.80;;
42194;SDS011;27863;49.440;11.102;2023-05-10T07:07:59;3.65;;;1.00;;
42194;SDS011;27863;49.440;11.102;2023-05-10T07:11:00;2.25;;;0.70;;
42194;SDS011;27863;49.440;11.102;2023-05-10T07:14:02;1.42;;;0.70;;
42194;SDS011;27863;49.440;11.102;2023-05-10T07:17:02;0.60;;;0.60;;
42194;SDS011;27863;49.440;11.102;2023-05-10T07:20:03;0.57;;;0.52;;
42194;SDS011;27863;49.440;11.102;2023-05-10T07:23:04;0.70;;;0.50;;
42194;SDS011;27863;49.440;11.102;2023-05-10T07:26:05;0.75;;;0.55;;
42194;SDS011;27863;49.440;11.102;2023-05-10T07:29:06;0.60;;;0.60;;
42194;SDS011;27863;49.440;11.102;2023-05-10T07:32:06;0.95;;;0.88;;
42194;SDS011;27863;49.440;11.102;2023-05-10T07:35:07;0.52;;;0.52;;
42194;SDS011;27863;49.440;11.102;2023-05-10T07:38:08;1.15;;;0.70;;
42194;SDS011;27863;49.440;11.102;2023-05-10T07:41:11;1.95;;;0.85;;
42194;SDS011;27863;49.440;11.102;2023-05-10T07:44:13;0.60;;;0.60;;
42194;SDS011;27863;49.440;11.102;2023-05-10T07:47:13;0.80;;;0.75;;
42194;SDS011;27863;49.440;11.102;2023-05-10T07:50:18;0.50;;;0.50;;
42194;SDS011;27863;49.440;11.102;2023-05-10T07:53:18;0.70;;;0.70;;
42194;SDS011;27863;49.440;11.102;2023-05-10T07:56:20;0.52;;;0.52;;
42194;SDS011;27863;49.440;11.102;2023-05-10T07:59:21;0.90;;;0.90;;
42194;SDS011;27863;49.440;11.102;2023-05-10T08:02:22;1.67;;;0.80;;
42194;SDS011;27863;49.440;11.102;2023-05-10T08:05:22;0.77;;;0.77;;
42194;SDS011;27863;49.440;11.102;2023-05-10T08:08:23;1.70;;;1.00;;
42194;SDS011;27863;49.440;11.102;2023-05-10T08:11:24;0.90;;;0.73;;
42194;SDS011;27863;49.440;11.102;2023-05-10T08:14:25;1.42;;;0.60;;
42194;SDS011;27863;49.440;11.102;2023-05-10T08:17:27;0.73;;;0.73;;
42194;SDS011;27863;49.440;11.102;2023-05-10T08:20:27;0.80;;;0.60;;
42194;SDS011;27863;49.440;11.102;2023-05-10T08:23:28;0.70;;;0.70;;
42194;SDS011;27863;49.440;11.102;2023-05-10T08:26:28;0.90;;;0.90;;
42194;SDS011;27863;49.440;11.102;2023-05-10T08:29:29;1.83;;;1.10;;
42194;SDS011;27863;49.440;11.102;2023-05-10T08:32:29;1.75;;;1.27;;
42194;SDS011;27863;49.440;11.102;2023-05-10T08:35:30;1.27;;;0.80;;
42194;SDS011;27863;49.440;11.102;2023-05-10T08:38:32;1.52;;;0.93;;
42194;SDS011;27863;49.440;11.102;2023-05-10T08:41:33;0.80;;;0.80;;
42194;SDS011;27863;49.440;11.102;2023-05-10T08:44:36;0.90;;;0.90;;
42194;SDS011;27863;49.440;11.102;2023-05-10T08:47:36;1.38;;;0.90;;
42194;SDS011;27863;49.440;11.102;2023-05-10T08:50:39;1.80;;;0.95;;
42194;SDS011;27863;49.440;11.102;2023-05-10T08:53:43;0.75;;;0.75;;
42194;SDS011;27863;49.440;11.102;2023-05-10T08:56:45;2.45;;;1.38;;
42194;SDS011;27863;49.440;11.102;2023-05-10T08:59:56;0.93;;;0.93;;
42194;SDS011;27863;49.440;11.102;2023-05-10T09:02:58;4.50;;;0.88;;
42194;SDS011;27863;49.440;11.102;2023-05-10T09:05:59;0.85;;;0.80;;
42194;SDS011;27863;49.440;11.102;2023-05-10T09:09:01;1.85;;;0.95;;
42194;SDS011;27863;49.440;11.102;2023-05-10T09:12:03;1.35;;;1.25;;
42194;SDS011;27863;49.440;11.102;2023-05-10T09:15:07;2.70;;;2.08;;
42194;SDS011;27863;49.440;11.102;2023-05-10T09:18:11;1.40;;;1.30;;
42194;SDS011;27863;49.440;11.102;2023-05-10T09:21:12;2.28;;;1.23;;
42194;SDS011;27863;49.440;11.102;2023-05-10T09:24:14;2.75;;;1.50;;
42194;SDS011;27863;49.440;11.102;2023-05-10T09:27:14;1.80;;;1.23;;
42194;SDS011;27863;49.440;11.102;2023-05-10T09:30:34;1.60;;;1.45;;
42194;SDS011;27863;49.440;11.102;2023-05-10T09:33:46;2.22;;;1.55;;
42194;SDS011;27863;49.440;11.102;2023-05-10T09:36:53;4.85;;;2.30;;
42194;SDS011;27863;49.440;11.102;2023-05-10T09:39:58;2.50;;;2.30;;
42194;SDS011;27863;49.440;11.102;2023-05-10T09:46:15;1.92;;;1.73;;
42194;SDS011;27863;49.440;11.102;2023-05-10T09:49:16;2.22;;;1.80;;
42194;SDS011;27863;49.440;11.102;2023-05-10T09:52:16;2.25;;;2.05;;
42194;SDS011;27863;49.440;11.102;2023-05-10T09:55:18;2.08;;;1.88;;
42194;SDS011;27863;49.440;11.102;2023-05-10T09:58:27;3.25;;;2.55;;
42194;SDS011;27863;49.440;11.102;2023-05-10T10:01:27;1.90;;;1.70;;
42194;SDS011;27863;49.440;11.102;2023-05-10T10:04:28;1.80;;;1.70;;
42194;SDS011;27863;49.440;11.102;2023-05-10T10:07:31;2.42;;;2.22;;
42194;SDS011;27863;49.440;11.102;2023-05-10T10:10:34;2.28;;;1.70;;
42194;SDS011;27863;49.440;11.102;2023-05-10T10:13:40;2.10;;;1.63;;
42194;SDS011;27863;49.440;11.102;2023-05-10T10:16:40;2.03;;;1.80;;
42194;SDS011;27863;49.440;11.102;2023-05-10T10:19:44;1.42;;;1.33;;
42194;SDS011;27863;49.440;11.102;2023-05-10T10:22:46;1.05;;;0.95;;
42194;SDS011;27863;49.440;11.102;2023-05-10T10:25:47;1.48;;;0.90;;
42194;SDS011;27863;49.440;11.102;2023-05-10T10:32:25;1.42;;;1.10;;
42194;SDS011;27863;49.440;11.102;2023-05-10T10:35:30;1.00;;;0.90;;
42194;SDS011;27863;49.440;11.102;2023-05-10T10:41:57;1.95;;;1.00;;
42194;SDS011;27863;49.440;11.102;2023-05-10T10:45:11;1.58;;;1.10;;
42194;SDS011;27863;49.440;11.102;2023-05-10T10:48:22;1.00;;;0.90;;
42194;SDS011;27863;49.440;11.102;2023-05-10T10:51:22;0.98;;;0.93;;
42194;SDS011;27863;49.440;11.102;2023-05-10T10:54:27;1.08;;;0.80;;
42194;SDS011;27863;49.440;11.102;2023-05-10T10:57:31;1.02;;;0.75;;
42194;SDS011;27863;49.440;11.102;2023-05-10T11:03:34;2.15;;;1.15;;
42194;SDS011;27863;49.440;11.102;2023-05-10T11:06:35;1.17;;;1.10;;
42194;SDS011;27863;49.440;11.102;2023-05-10T11:09:39;1.67;;;0.98;;
42194;SDS011;27863;49.440;11.102;2023-05-10T11:16:10;1.48;;;0.93;;
42194;SDS011;27863;49.440;11.102;2023-05-10T11:19:12;2.17;;;0.90;;
42194;SDS011;27863;49.440;11.102;2023-05-10T11:22:13;0.80;;;0.80;;
42194;SDS011;27863;49.440;11.102;2023-05-10T11:25:14;0.80;;;0.80;;
42194;SDS011;27863;49.440;11.102;2023-05-10T11:28:16;0.88;;;0.88;;
42194;SDS011;27863;49.440;11.102;2023-05-10T11:31:18;1.20;;;1.10;;
42194;SDS011;27863;49.440;11.102;2023-05-10T11:34:23;7.30;;;1.10;;
42194;SDS011;27863;49.440;11.102;2023-05-10T11:37:29;1.10;;;1.02;;
42194;SDS011;27863;49.440;11.102;2023-05-10T11:40:34;3.42;;;2.03;;
42194;SDS011;27863;49.440;11.102;2023-05-10T11:43:35;1.00;;;1.00;;
42194;SDS011;27863;49.440;11.102;2023-05-10T11:46:38;1.17;;;1.08;;
42194;SDS011;27863;49.440;11.102;2023-05-10T11:49:42;1.02;;;0.93;;
42194;SDS011;27863;49.440;11.102;2023-05-10T11:52:44;1.80;;;0.90;;
42194;SDS011;27863;49.440;11.102;2023-05-10T11:55:45;1.10;;;1.10;;
42194;SDS011;27863;49.440;11.102;2023-05-10T11:58:52;1.15;;;1.05;;
42194;SDS011;27863;49.440;11.102;2023-05-10T12:01:56;2.25;;;1.20;;
42194;SDS011;27863;49.440;11.102;2023-05-10T12:04:57;1.35;;;1.02;;
42194;SDS011;27863;49.440;11.102;2023-05-10T12:08:11;1.75;;;1.20;;
42194;SDS011;27863;49.440;11.102;2023-05-10T12:11:13;2.15;;;1.60;;
42194;SDS011;27863;49.440;11.102;2023-05-10T12:14:17;1.40;;;1.23;;
42194;SDS011;27863;49.440;11.102;2023-05-10T12:17:19;1.45;;;1.35;;
42194;SDS011;27863;49.440;11.102;2023-05-10T12:20:20;1.40;;;1.30;;
42194;SDS011;27863;49.440;11.102;2023-05-10T12:23:22;1.50;;;1.40;;
42194;SDS011;27863;49.440;11.102;2023-05-10T12:26:24;2.22;;;2.00;;
42194;SDS011;27863;49.440;11.102;2023-05-10T12:29:26;2.03;;;1.92;;
42194;SDS011;27863;49.440;11.102;2023-05-10T12:35:47;2.05;;;1.38;;
42194;SDS011;27863;49.440;11.102;2023-05-10T12:38:49;3.45;;;3.15;;
42194;SDS011;27863;49.440;11.102;2023-05-10T12:41:51;1.48;;;1.38;;
42194;SDS011;27863;49.440;11.102;2023-05-10T12:44:58;0.70;;;0.70;;
42194;SDS011;27863;49.440;11.102;2023-05-10T12:47:59;0.90;;;0.90;;
42194;SDS011;27863;49.440;11.102;2023-05-10T12:51:01;0.60;;;0.60;;
42194;SDS011;27863;49.440;11.102;2023-05-10T12:54:02;0.80;;;0.80;;
42194;SDS011;27863;49.440;11.102;2023-05-10T12:57:03;0.77;;;0.77;;
42194;SDS011;27863;49.440;11.102;2023-05-10T13:00:04;0.60;;;0.60;;
42194;SDS011;27863;49.440;11.102;2023-05-10T13:03:05;0.70;;;0.70;;
42194;SDS011;27863;49.440;11.102;2023-05-10T13:06:06;0.93;;;0.80;;
42194;SDS011;27863;49.440;11.102;2023-05-10T13:09:06;0.80;;;0.80;;
42194;SDS011;27863;49.440;11.102;2023-05-10T13:12:07;0.80;;;0.80;;
42194;SDS011;27863;49.440;11.102;2023-05-10T13:15:08;1.20;;;1.00;;
42194;SDS011;27863;49.440;11.102;2023-05-10T13:18:09;1.13;;;1.02;;
42194;SDS011;27863;49.440;11.102;2023-05-10T13:21:10;0.95;;;0.93;;
42194;SDS011;27863;49.440;11.102;2023-05-10T13:24:11;3.35;;;1.00;;
42194;SDS011;27863;49.440;11.102;2023-05-10T13:27:13;1.23;;;1.13;;
42194;SDS011;27863;49.440;11.102;2023-05-10T13:30:15;0.90;;;0.90;;
42194;SDS011;27863;49.440;11.102;2023-05-10T13:33:16;1.20;;;1.10;;
42194;SDS011;27863;49.440;11.102;2023-05-10T13:36:17;1.00;;;1.00;;
42194;SDS011;27863;49.440;11.102;2023-05-10T13:39:17;0.90;;;0.88;;
42194;SDS011;27863;49.440;11.102;2023-05-10T13:42:18;1.73;;;0.80;;
42194;SDS011;27863;49.440;11.102;2023-05-10T13:45:18;0.60;;;0.60;;
42194;SDS011;27863;49.440;11.102;2023-05-10T13:48:19;0.75;;;0.70;;
42194;SDS011;27863;49.440;11.102;2023-05-10T13:51:21;1.75;;;0.57;;
42194;SDS011;27863;49.440;11.102;2023-05-10T13:54:23;0.70;;;0.70;;
42194;SDS011;27863;49.440;11.102;2023-05-10T13:57:23;0.50;;;0.50;;
42194;SDS011;27863;49.440;11.102;2023-05-10T14:00:24;2.35;;;1.30;;
42194;SDS011;27863;49.440;11.102;2023-05-10T14:03:25;3.83;;;1.05;;
42194;SDS011;27863;49.440;11.102;2023-05-10T14:06:25;2.22;;;0.85;;
42194;SDS011;27863;49.440;11.102;2023-05-10T14:09:27;1.08;;;0.90;;
42194;SDS011;27863;49.440;11.102;2023-05-10T14:12:27;1.83;;;1.10;;
42194;SDS011;27863;49.440;11.102;2023-05-10T14:15:30;2.20;;;1.17;;
42194;SDS011;27863;49.440;11.102;2023-05-10T14:18:31;0.80;;;0.80;;
42194;SDS011;27863;49.440;11.102;2023-05-10T14:21:32;1.98;;;1.20;;
42194;SDS011;27863;49.440;11.102;2023-05-10T14:24:34;1.30;;;1.17;;
42194;SDS011;27863;49.440;11.102;2023-05-10T14:27:37;1.40;;;1.10;;
42194;SDS011;27863;49.440;11.102;2023-05-10T14:30:38;6.75;;;5.03;;
42194;SDS011;27863;49.440;11.102;2023-05-10T14:33:38;1.85;;;0.88;;
42194;SDS011;27863;49.440;11.102;2023-05-10T14:36:39;2.53;;;1.08;;
42194;SDS011;27863;49.440;11.102;2023-05-10T14:39:40;1.10;;;1.00;;
42194;SDS011;27863;49.440;11.102;2023-05-10T14:42:42;1.50;;;1.10;;
42194;SDS011;27863;49.440;11.102;2023-05-10T14:45:43;1.13;;;0.93;;
42194;SDS011;27863;49.440;11.102;2023-05-10T14:48:45;0.98;;;0.98;;
42194;SDS011;27863;49.440;11.102;2023-05-10T14:51:46;0.75;;;0.75;;
42194;SDS011;27863;49.440;11.102;2023-05-10T14:54:48;1.38;;;1.20;;
42194;SDS011;27863;49.440;11.102;2023-05-10T14:57:49;0.80;;;0.80;;
42194;SDS011;27863;49.440;11.102;2023-05-10T15:00:52;1.30;;;1.20;;
42194;SDS011;27863;49.440;11.102;2023-05-10T15:03:53;1.00;;;1.00;;
42194;SDS011;27863;49.440;11.102;2023-05-10T15:06:53;0.90;;;0.90;;
42194;SDS011;27863;49.440;11.102;2023-05-10T15:09:59;1.42;;;1.00;;
42194;SDS011;27863;49.440;11.102;2023-05-10T15:12:59;1.42;;;1.10;;
42194;SDS011;27863;49.440;11.102;2023-05-10T15:16:00;1.38;;;0.90;;
42194;SDS011;27863;49.440;11.102;2023-05-10T15:19:01;1.33;;;1.10;;
42194;SDS011;27863;49.440;11.102;2023-05-10T15:22:02;1.10;;;1.00;;
42194;SDS011;27863;49.440;11.102;2023-05-10T15:25:04;0.70;;;0.70;;
42194;SDS011;27863;49.440;11.102;2023-05-10T15:28:05;0.60;;;0.60;;
42194;SDS011;27863;49.440;11.102;2023-05-10T15:31:05;0.70;;;0.70;;
42194;SDS011;27863;49.440;11.102;2023-05-10T15:34:06;0.60;;;0.60;;
42194;SDS011;27863;49.440;11.102;2023-05-10T15:37:06;0.68;;;0.68;;
42194;SDS011;27863;49.440;11.102;2023-05-10T15:40:07;0.60;;;0.60;;
42194;SDS011;27863;49.440;11.102;2023-05-10T15:43:08;0.63;;;0.52;;
42194;SDS011;27863;49.440;11.102;2023-05-10T15:46:09;1.13;;;0.88;;
42194;SDS011;27863;49.440;11.102;2023-05-10T15:49:09;0.57;;;0.57;;
42194;SDS011;27863;49.440;11.102;2023-05-10T15:52:11;1.63;;;0.95;;
42194;SDS011;27863;49.440;11.102;2023-05-10T15:55:14;0.68;;;0.68;;
42194;SDS011;27863;49.440;11.102;2023-05-10T15:58:15;1.25;;;0.75;;
42194;SDS011;27863;49.440;11.102;2023-05-10T16:01:16;0.60;;;0.60;;
42194;SDS011;27863;49.440;11.102;2023-05-10T16:04:16;1.55;;;0.60;;
42194;SDS011;27863;49.440;11.102;2023-05-10T16:07:17;1.05;;;0.95;;
42194;SDS011;27863;49.440;11.102;2023-05-10T16:10:17;3.10;;;0.93;;
42194;SDS011;27863;49.440;11.102;2023-05-10T16:13:18;1.95;;;1.00;;
42194;SDS011;27863;49.440;11.102;2023-05-10T16:16:19;2.15;;;1.23;;
42194;SDS011;27863;49.440;11.102;2023-05-10T16:19:19;0.90;;;0.90;;
42194;SDS011;27863;49.440;11.102;2023-05-10T16:22:20;1.25;;;1.15;;
42194;SDS011;27863;49.440;11.102;2023-05-10T16:25:21;1.38;;;1.17;;
42194;SDS011;27863;49.440;11.102;2023-05-10T16:28:21;2.05;;;1.55;;
42194;SDS011;27863;49.440;11.102;2023-05-10T16:31:22;3.22;;;2.13;;
42194;SDS011;27863;49.440;11.102;2023-05-10T16:34:23;5.07;;;1.20;;
42194;SDS011;27863;49.440;11.102;2023-05-10T16:37:24;2.17;;;1.83;;
42194;SDS011;27863;49.440;11.102;2023-05-10T16:40:25;1.92;;;1.80;;
42194;SDS011;27863;49.440;11.102;2023-05-10T16:43:26;1.40;;;1.30;;
42194;SDS011;27863;49.440;11.102;2023-05-10T16:46:26;1.45;;;1.30;;
42194;SDS011;27863;49.440;11.102;2023-05-10T16:49:27;1.55;;;1.45;;
42194;SDS011;27863;49.440;11.102;2023-05-10T16:52:28;2.95;;;1.35;;
42194;SDS011;27863;49.440;11.102;2023-05-10T16:55:29;1.35;;;1.25;;
42194;SDS011;27863;49.440;11.102;2023-05-10T16:58:29;1.38;;;1.27;;
42194;SDS011;27863;49.440;11.102;2023-05-10T17:01:30;1.58;;;1.45;;
42194;SDS011;27863;49.440;11.102;2023-05-10T17:04:32;1.55;;;1.45;;
42194;SDS011;27863;49.440;11.102;2023-05-10T17:07:33;2.58;;;1.30;;
42194;SDS011;27863;49.440;11.102;2023-05-10T17:10:34;1.15;;;1.10;;
42194;SDS011;27863;49.440;11.102;2023-05-10T17:13:35;1.30;;;1.20;;
42194;SDS011;27863;49.440;11.102;2023-05-10T17:16:40;1.17;;;1.00;;
42194;SDS011;27863;49.440;11.102;2023-05-10T17:19:40;2.10;;;1.52;;
42194;SDS011;27863;49.440;11.102;2023-05-10T17:22:45;3.22;;;1.33;;
42194;SDS011;27863;49.440;11.102;2023-05-10T17:25:45;1.70;;;1.60;;
42194;SDS011;27863;49.440;11.102;2023-05-10T17:28:46;1.50;;;1.40;;
42194;SDS011;27863;49.440;11.102;2023-05-10T17:31:47;1.73;;;1.63;;
42194;SDS011;27863;49.440;11.102;2023-05-10T17:34:48;2.15;;;1.88;;
42194;SDS011;27863;49.440;11.102;2023-05-10T17:37:48;2.20;;;1.83;;
42194;SDS011;27863;49.440;11.102;2023-05-10T17:40:49;1.70;;;1.60;;
42194;SDS011;27863;49.440;11.102;2023-05-10T17:43:50;1.83;;;1.40;;
42194;SDS011;27863;49.440;11.102;2023-05-10T17:46:50;1.58;;;1.30;;
42194;SDS011;27863;49.440;11.102;2023-05-10T17:49:51;1.55;;;1.45;;
42194;SDS011;27863;49.440;11.102;2023-05-10T17:52:52;1.70;;;1.55;;
42194;SDS011;27863;49.440;11.102;2023-05-10T17:55:52;1.67;;;1.50;;
42194;SDS011;27863;49.440;11.102;2023-05-10T17:59:05;1.80;;;1.63;;
42194;SDS011;27863;49.440;11.102;2023-05-10T18:02:15;1.25;;;1.13;;
42194;SDS011;27863;49.440;11.102;2023-05-10T18:05:16;1.40;;;1.30;;
42194;SDS011;27863;49.440;11.102;2023-05-10T18:08:20;1.40;;;1.30;;
42194;SDS011;27863;49.440;11.102;2023-05-10T18:11:26;1.77;;;1.55;;
42194;SDS011;27863;49.440;11.102;2023-05-10T18:14:26;1.60;;;1.50;;
42194;SDS011;27863;49.440;11.102;2023-05-10T18:17:27;1.95;;;1.70;;
42194;SDS011;27863;49.440;11.102;2023-05-10T18:20:28;2.20;;;1.40;;
42194;SDS011;27863;49.440;11.102;2023-05-10T18:23:29;2.08;;;1.30;;
42194;SDS011;27863;49.440;11.102;2023-05-10T18:26:29;4.00;;;2.47;;
42194;SDS011;27863;49.440;11.102;2023-05-10T18:29:30;3.10;;;2.80;;